Detall de PIREP

Printer-friendly versionPDF version

[2015/12/12 09:16:00]
Flight IATA:CT3221
Pilot Number:012
Company ICAO:CAT
Aircraft Type:B744/E
PAX:426
Departing Airport: LCLK
Destination Airport: LEPA
Alternate Airport:LEBL
Online: VATSIM
Route:PHA/M054F380 UM31 MAROS UA16 KOSEG UL995 AMONO UM978 PERIM UL53 MADEX UM601 QUENN UQ123 USEPI UZ924 KUPIM/N0393F190 Z924 RIPAL M603 MORSS
Flight Level:F380
No Slew and time accel
No pause
Crash detect
Detect pilot in Cockpit between each 30 and 45 minutes
09:16 Zero fuel Weight: 479452 Lbs, Fuel Weight: 115183 Lbs
09:16 VATSIM:LCLK 121000Z 30008KT 4000 TSRA FEW015 FEW025CB FEW025TCU SCT040 14/13 Q1016 NOSIG
09:16 VATSIM:LEPA 121000Z VRB01KT 9999 FEW026 SCT040 14/09 Q1029 NOSIG
09:17 Parking Brakes off
09:24 Take-off
09:24 Take off Weight: 592653 Lbs
09:24 Wind: 295º @ 008 Knots Heading: 227º
09:24 POS N34º 52´ 18´´ E033º 37´ 17´´
09:24 Gear Up: 184 Knots
09:24 Flaps:3 at 184 Knots
09:24 Flaps:2 at 202 Knots
09:24 Flaps:1 at 219 Knots
09:25 Flaps:0 at 251 Knots
09:39 Wind:232º@033 Knots Heading: 263º Ground Speed: 464 Knots Altitude 35748 ft
09:40 TOC
09:40 Fuel Weight: 100653 Lb
09:54 Wind:257º@016 Knots Heading: 272º Ground Speed: 479 Knots Altitude 38054 ft
10:09 Wind:289º@021 Knots Heading: 299º Ground Speed: 471 Knots Altitude 38077 ft
10:24 Wind:335º@027 Knots Heading: 281º Ground Speed: 476 Knots Altitude 38169 ft
10:39 Wind:356º@046 Knots Heading: 295º Ground Speed: 463 Knots Altitude 38264 ft
10:54 Wind:355º@051 Knots Heading: 301º Ground Speed: 452 Knots Altitude 38280 ft
11:09 Wind:356º@038 Knots Heading: 292º Ground Speed: 460 Knots Altitude 38323 ft
11:24 Wind:341º@027 Knots Heading: 281º Ground Speed: 463 Knots Altitude 38395 ft
11:39 Wind:304º@020 Knots Heading: 288º Ground Speed: 457 Knots Altitude 38435 ft
11:54 Wind:269º@029 Knots Heading: 284º Ground Speed: 446 Knots Altitude 38405 ft
12:09 Wind:270º@028 Knots Heading: 278º Ground Speed: 446 Knots Altitude 38418 ft
12:24 Wind:248º@028 Knots Heading: 259º Ground Speed: 448 Knots Altitude 38379 ft
12:30 TOD
12:30 Fuel Weight: 42002 Lb
12:39 Wind:184º@019 Knots Heading: 252º Ground Speed: 349 Knots Altitude 18651 ft
12:47 Flaps:1 at 217 Knots
12:50 Flaps:2 at 178 Knots
12:50 Flaps:3 at 177 Knots
12:50 Flaps:4 at 175 Knots
12:50 Gear Down: 172 Knots
12:51 Flaps:5 at 136 Knots
12:51 Flaps:6 at 131 Knots
12:54 Wind:185º@001 Knots Heading: 255º Ground Speed: 148 Knots Altitude 3694 ft
12:59 TouchDown:Rate -272 ft/min Speed: 128 Knots
12:59 VATSIM:LEPA 121330Z VRB01KT 9999 FEW022 BKN033 17/10 Q1027 NOSIG
12:59 Land
12:59 Wind:237º@001 Knots
12:59 Heading: 240º
12:59 Flight Duration: 03:35
12:59 Landing Weight: 513315 Lbs
12:59 POS N39º 33´ 01´´ E002º 45´ 04´´
13:03 Parking brakes on
13:03 Block to Block Duration: 03:46
13:03 Final Fuel: 33304 Lbls
13:03 Spent Fuel: 81878 Lbls
13:03 Flight Length: 1541 NM
13:03 TOD Land Length: 132 NM

Exportar CSV

Powered by Drupal - Modified by Danger4k